createdAt,value
2019-01-21T00:03:52.715Z,60.10
2019-01-21T00:08:57.822Z,62.07
2019-01-21T00:14:02.959Z,59.40
2019-01-21T00:19:08.011Z,71.03
2019-01-21T00:24:13.105Z,63.50
2019-01-21T00:29:18.177Z,63.60
2019-01-21T00:34:23.047Z,63.73
2019-01-21T00:39:27.943Z,63.40
2019-01-21T00:44:32.965Z,69.17
2019-01-21T00:49:37.926Z,61.87
2019-01-21T00:54:42.774Z,62.87
2019-01-21T00:59:47.982Z,61.47
2019-01-21T01:04:53.143Z,59.33
2019-01-21T01:09:58.185Z,62.37
2019-01-21T01:15:03.717Z,56.07
2019-01-21T01:20:13.487Z,59.03
2019-01-21T01:25:17.752Z,57.07
2019-01-21T01:30:21.737Z,57.50
2019-01-21T01:35:26.282Z,60.37
2019-01-21T01:40:30.201Z,53.07
2019-01-21T01:45:34.318Z,52.20
2019-01-21T01:50:38.556Z,49.80
2019-01-21T01:55:42.876Z,51.00
2019-01-21T02:00:46.992Z,48.53
2019-01-21T02:05:51.092Z,45.20
2019-01-21T02:10:54.552Z,46.30
2019-01-21T02:15:58.717Z,46.73
2019-01-21T02:21:05.231Z,44.23
2019-01-21T02:26:21.685Z,48.30
2019-01-21T02:32:17.183Z,41.77
2019-01-21T02:38:05.559Z,45.97
2019-01-21T02:43:31.894Z,42.50
2019-01-21T02:49:18.911Z,43.87
2019-01-21T02:54:49.067Z,40.60
2019-01-21T03:00:47.139Z,50.47
2019-01-21T03:06:16.162Z,49.87
2019-01-21T03:11:56.132Z,46.30
2019-01-21T03:17:49.187Z,47.43
2019-01-21T03:23:31.183Z,44.93
2019-01-21T03:29:19.279Z,55.10
2019-01-21T03:35:03.701Z,44.80
2019-01-21T03:40:26.041Z,41.73
2019-01-21T03:46:04.429Z,40.60
2019-01-21T03:52:12.904Z,45.10
2019-01-21T03:57:40.889Z,48.47
2019-01-21T04:03:14.278Z,40.80
2019-01-21T04:08:45.366Z,47.73
2019-01-21T04:14:21.559Z,49.23
2019-01-21T04:19:55.177Z,46.10
2019-01-21T04:25:54.501Z,49.77
2019-01-21T04:31:38.543Z,51.70
2019-01-21T04:37:22.122Z,59.00
2019-01-21T04:42:59.782Z,45.07
2019-01-21T04:48:46.959Z,54.17
2019-01-21T04:54:39.011Z,52.13
2019-01-21T05:00:28.865Z,49.73
2019-01-21T05:06:09.792Z,57.27
2019-01-21T05:12:10.032Z,51.53
2019-01-21T05:17:52.163Z,52.93
2019-01-21T05:23:35.696Z,51.87
2019-01-21T05:29:02.227Z,50.23
2019-01-21T05:34:43.709Z,45.07
2019-01-21T05:40:23.636Z,52.20
2019-01-21T05:46:03.229Z,54.63
2019-01-21T05:51:49.603Z,50.13
2019-01-21T05:57:32.856Z,52.80
2019-01-21T06:03:22.043Z,61.30
2019-01-21T06:09:18.253Z,51.37
2019-01-21T06:15:23.327Z,57.57
2019-01-21T06:21:17.316Z,46.90
2019-01-21T06:26:48.561Z,52.23
2019-01-21T06:32:31.367Z,45.10
2019-01-21T06:38:21.439Z,51.80
2019-01-21T06:43:59.073Z,52.43
2019-01-21T06:49:52.529Z,53.93
2019-01-21T06:55:38.793Z,44.40
2019-01-21T07:01:18.912Z,57.33
2019-01-21T07:07:03.589Z,62.33
2019-01-21T07:12:51.089Z,50.77
2019-01-21T07:18:40.743Z,59.70
2019-01-21T07:24:29.765Z,55.83
2019-01-21T07:30:26.019Z,47.97
2019-01-21T07:36:04.695Z,46.63
2019-01-21T07:41:28.036Z,55.00
2019-01-21T07:47:09.115Z,55.67
2019-01-21T07:52:55.305Z,51.13
2019-01-21T07:58:38.467Z,52.73
2019-01-21T08:04:17.253Z,49.10
2019-01-21T08:09:54.090Z,52.13
2019-01-21T08:15:26.172Z,57.27
2019-01-21T08:21:09.509Z,54.80
2019-01-21T08:26:44.135Z,52.57
2019-01-21T08:32:32.135Z,48.10
2019-01-21T08:38:29.018Z,54.03
2019-01-21T08:44:11.796Z,49.40
2019-01-21T08:50:06.319Z,50.77
2019-01-21T08:55:47.953Z,46.80
2019-01-21T09:01:47.465Z,57.30
2019-01-21T09:07:19.700Z,50.60
2019-01-21T09:13:09.225Z,48.37
2019-01-21T09:18:44.416Z,53.23
2019-01-21T09:24:30.721Z,54.60
2019-01-21T09:30:05.951Z,50.23
2019-01-21T09:35:50.100Z,49.97
2019-01-21T09:41:26.315Z,51.13
2019-01-21T09:46:45.591Z,50.07
2019-01-21T09:52:05.086Z,54.70
2019-01-21T09:57:20.261Z,43.87
2019-01-21T10:02:38.279Z,45.30
2019-01-21T10:08:04.271Z,47.97
2019-01-21T10:13:56.328Z,45.73
2019-01-21T10:19:26.793Z,42.03
2019-01-21T10:25:16.111Z,45.03
2019-01-21T10:30:44.393Z,41.23
2019-01-21T10:36:24.454Z,42.27
2019-01-21T10:42:11.727Z,40.40
2019-01-21T10:47:36.485Z,49.27
2019-01-21T10:53:36.902Z,46.27
2019-01-21T10:58:59.223Z,44.13
2019-01-21T11:04:59.815Z,42.10
2019-01-21T11:10:44.323Z,37.47
2019-01-21T11:16:29.402Z,41.00
2019-01-21T11:21:52.529Z,41.90
2019-01-21T11:27:26.109Z,41.00
2019-01-21T11:33:20.990Z,38.20
2019-01-21T11:39:04.841Z,44.67
2019-01-21T11:44:48.389Z,42.40
2019-01-21T11:50:31.516Z,40.57
2019-01-21T11:55:50.918Z,38.03
2019-01-21T12:01:23.683Z,41.40
2019-01-21T12:06:51.545Z,39.90
2019-01-21T12:12:38.916Z,44.50
2019-01-21T12:18:27.791Z,41.57
2019-01-21T12:23:49.985Z,35.60
2019-01-21T12:29:20.430Z,42.50
2019-01-21T12:35:13.004Z,40.27
2019-01-21T12:40:53.587Z,67.90
2019-01-21T12:46:15.379Z,43.90
2019-01-21T12:52:11.135Z,42.23
2019-01-21T12:57:53.274Z,45.90
2019-01-21T13:03:17.842Z,46.27
2019-01-21T13:08:38.938Z,40.23
2019-01-21T13:14:06.765Z,42.03
2019-01-21T13:19:54.634Z,44.37
2019-01-21T13:25:42.690Z,39.57
2019-01-21T13:31:24.396Z,44.57
2019-01-21T13:37:02.357Z,49.40
2019-01-21T13:42:34.761Z,43.23
2019-01-21T13:48:28.239Z,37.90
2019-01-21T13:54:10.751Z,44.03
2019-01-21T14:00:11.369Z,42.40
2019-01-21T14:05:42.723Z,43.00
2019-01-21T14:11:33.115Z,46.13
2019-01-21T14:17:06.037Z,60.23
2019-01-21T14:22:58.647Z,47.60
2019-01-21T14:28:39.693Z,42.33
2019-01-21T14:34:06.379Z,42.90
2019-01-21T14:39:48.923Z,41.20
2019-01-21T14:45:34.441Z,48.93
2019-01-21T14:51:05.813Z,44.20
2019-01-21T14:56:42.874Z,42.00
2019-01-21T15:02:25.527Z,41.70
2019-01-21T15:08:01.183Z,48.70
2019-01-21T15:13:56.282Z,44.77
2019-01-21T15:19:18.853Z,43.80
2019-01-21T15:24:50.983Z,45.97
2019-01-21T15:30:19.646Z,52.20
2019-01-21T15:36:02.145Z,43.47
2019-01-21T15:41:32.845Z,52.57
2019-01-21T15:47:28.002Z,49.10
2019-01-21T15:53:31.017Z,51.73
2019-01-21T15:59:10.171Z,46.83
2019-01-21T16:04:50.421Z,52.33
2019-01-21T16:10:23.872Z,53.00
2019-01-21T16:15:58.931Z,55.90
2019-01-21T16:21:45.522Z,52.13
2019-01-21T16:27:07.684Z,52.60
2019-01-21T16:32:43.467Z,49.37
2019-01-21T16:38:10.964Z,54.93
2019-01-21T16:43:15.956Z,57.97
2019-01-21T16:48:20.896Z,56.87
2019-01-21T16:53:26.264Z,54.13
2019-01-21T16:58:32.250Z,74.03
2019-01-21T17:03:37.376Z,102.23
2019-01-21T17:08:42.724Z,104.23
2019-01-21T17:13:47.668Z,86.27
2019-01-21T17:18:53.707Z,83.90
2019-01-21T17:23:58.959Z,66.23
2019-01-21T17:29:05.420Z,61.37
2019-01-21T17:34:10.627Z,55.60
2019-01-21T17:39:15.918Z,50.70
2019-01-21T17:44:21.110Z,56.97
2019-01-21T17:49:26.169Z,96.27
2019-01-21T17:54:34.781Z,85.70
2019-01-21T17:59:38.481Z,81.80
2019-01-21T18:04:43.637Z,71.33
2019-01-21T18:09:48.725Z,59.33
2019-01-21T18:14:54.077Z,53.63
2019-01-21T18:20:00.475Z,66.97
2019-01-21T18:25:06.501Z,62.80
2019-01-21T18:30:15.080Z,60.83
2019-01-21T18:35:18.951Z,58.63
2019-01-21T18:40:23.406Z,64.93
2019-01-21T18:45:28.561Z,59.80
2019-01-21T18:50:32.636Z,76.97
2019-01-21T18:55:36.759Z,74.27
2019-01-21T19:00:40.943Z,91.93
2019-01-21T19:05:45.848Z,98.53
2019-01-21T19:10:50.383Z,78.97
2019-01-21T19:15:54.888Z,83.93
2019-01-21T19:21:00.477Z,87.07
2019-01-21T19:26:04.982Z,86.70
2019-01-21T19:31:09.842Z,80.67
2019-01-21T19:36:15.023Z,94.40
2019-01-21T19:41:20.390Z,88.47
2019-01-21T19:46:24.943Z,77.10
2019-01-21T19:51:29.582Z,70.83
2019-01-21T19:56:34.595Z,85.37
2019-01-21T20:01:39.122Z,98.50
2019-01-21T20:06:43.717Z,101.83
2019-01-21T20:11:48.017Z,97.90
2019-01-21T20:16:52.600Z,100.37
2019-01-21T20:21:57.433Z,87.07
2019-01-21T20:27:03.037Z,93.77
2019-01-21T20:32:08.408Z,80.20
2019-01-21T20:37:13.792Z,79.93
2019-01-21T20:42:19.231Z,72.67
2019-01-21T20:47:24.632Z,79.70
2019-01-21T20:52:29.820Z,76.90
2019-01-21T20:57:34.798Z,88.60
2019-01-21T21:02:39.921Z,77.70
2019-01-21T21:07:45.501Z,75.40
2019-01-21T21:12:53.795Z,79.10
2019-01-21T21:17:59.087Z,77.67
2019-01-21T21:23:06.224Z,82.70
2019-01-21T21:28:12.011Z,82.73
2019-01-21T21:33:17.470Z,76.20
2019-01-21T21:38:26.398Z,73.00
2019-01-21T21:43:31.953Z,73.33
2019-01-21T21:48:37.905Z,81.63
2019-01-21T21:53:43.239Z,78.83
2019-01-21T21:58:49.053Z,73.80
2019-01-21T22:03:54.919Z,83.07
2019-01-21T22:09:01.827Z,79.67
2019-01-21T22:14:09.200Z,72.43
2019-01-21T22:19:14.716Z,71.17
2019-01-21T22:24:21.033Z,67.50
2019-01-21T22:29:25.968Z,76.73
2019-01-21T22:34:31.389Z,62.27
2019-01-21T22:39:36.647Z,61.77
2019-01-21T22:44:42.192Z,59.53
2019-01-21T22:49:47.407Z,58.53
2019-01-21T22:54:52.666Z,69.23
2019-01-21T22:59:58.291Z,66.27
2019-01-21T23:05:04.085Z,64.57
2019-01-21T23:10:09.251Z,59.47
2019-01-21T23:15:14.259Z,68.33
2019-01-21T23:20:18.315Z,64.93
2019-01-21T23:25:22.703Z,68.77
2019-01-21T23:30:27.114Z,71.23
2019-01-21T23:35:31.545Z,64.53
2019-01-21T23:40:35.716Z,66.50
2019-01-21T23:45:39.825Z,60.57
2019-01-21T23:50:44.564Z,58.73
2019-01-21T23:55:48.625Z,57.53
